sensor_id;sensor_type;location;lat;lon;timestamp;P1;durP1;ratioP1;P2;durP2;ratioP2
61903;SDS011;47857;52.270;6.804;2022-07-21T00:01:06;14.93;;;12.80;;
61903;SDS011;47857;52.270;6.804;2022-07-21T00:03:31;17.83;;;13.75;;
61903;SDS011;47857;52.270;6.804;2022-07-21T00:05:57;16.45;;;14.23;;
61903;SDS011;47857;52.270;6.804;2022-07-21T00:08:22;15.95;;;14.15;;
61903;SDS011;47857;52.270;6.804;2022-07-21T00:26:00;17.13;;;14.68;;
61903;SDS011;47857;52.270;6.804;2022-07-21T00:28:26;20.33;;;15.10;;
61903;SDS011;47857;52.270;6.804;2022-07-21T00:30:51;17.83;;;15.15;;
61903;SDS011;47857;52.270;6.804;2022-07-21T00:33:17;20.13;;;15.80;;
61903;SDS011;47857;52.270;6.804;2022-07-21T00:35:42;17.00;;;15.20;;
61903;SDS011;47857;52.270;6.804;2022-07-21T00:38:08;17.60;;;14.95;;
61903;SDS011;47857;52.270;6.804;2022-07-21T00:40:33;17.73;;;14.20;;
61903;SDS011;47857;52.270;6.804;2022-07-21T00:42:59;17.25;;;14.40;;
61903;SDS011;47857;52.270;6.804;2022-07-21T00:45:24;21.88;;;16.23;;
61903;SDS011;47857;52.270;6.804;2022-07-21T00:47:50;20.33;;;16.60;;
61903;SDS011;47857;52.270;6.804;2022-07-21T00:50:16;20.13;;;16.10;;
61903;SDS011;47857;52.270;6.804;2022-07-21T00:52:44;26.13;;;17.40;;
61903;SDS011;47857;52.270;6.804;2022-07-21T00:55:11;20.27;;;15.65;;
61903;SDS011;47857;52.270;6.804;2022-07-21T00:57:38;22.27;;;15.88;;
61903;SDS011;47857;52.270;6.804;2022-07-21T01:00:05;18.35;;;14.73;;
61903;SDS011;47857;52.270;6.804;2022-07-21T01:02:31;21.40;;;16.23;;
61903;SDS011;47857;52.270;6.804;2022-07-21T01:04:58;18.35;;;15.52;;
61903;SDS011;47857;52.270;6.804;2022-07-21T01:07:24;20.95;;;16.70;;
61903;SDS011;47857;52.270;6.804;2022-07-21T01:09:49;20.60;;;16.23;;
61903;SDS011;47857;52.270;6.804;2022-07-21T01:12:15;19.98;;;16.90;;
61903;SDS011;47857;52.270;6.804;2022-07-21T01:14:40;22.63;;;17.48;;
61903;SDS011;47857;52.270;6.804;2022-07-21T01:17:06;23.35;;;18.30;;
61903;SDS011;47857;52.270;6.804;2022-07-21T01:19:31;21.05;;;18.25;;
61903;SDS011;47857;52.270;6.804;2022-07-21T01:21:57;21.52;;;17.88;;
61903;SDS011;47857;52.270;6.804;2022-07-21T01:24:23;25.58;;;19.25;;
61903;SDS011;47857;52.270;6.804;2022-07-21T01:26:50;20.48;;;17.83;;
61903;SDS011;47857;52.270;6.804;2022-07-21T01:29:17;22.48;;;17.83;;
61903;SDS011;47857;52.270;6.804;2022-07-21T01:31:44;22.25;;;17.80;;
61903;SDS011;47857;52.270;6.804;2022-07-21T01:34:11;19.75;;;16.67;;
61903;SDS011;47857;52.270;6.804;2022-07-21T01:36:37;21.45;;;17.63;;
61903;SDS011;47857;52.270;6.804;2022-07-21T01:39:06;22.65;;;17.83;;
61903;SDS011;47857;52.270;6.804;2022-07-21T01:41:51;26.23;;;19.65;;
61903;SDS011;47857;52.270;6.804;2022-07-21T01:44:17;24.38;;;19.25;;
61903;SDS011;47857;52.270;6.804;2022-07-21T01:46:46;20.17;;;16.90;;
61903;SDS011;47857;52.270;6.804;2022-07-21T01:49:14;21.65;;;16.35;;
61903;SDS011;47857;52.270;6.804;2022-07-21T01:51:41;18.77;;;15.80;;
61903;SDS011;47857;52.270;6.804;2022-07-21T01:54:07;18.23;;;15.43;;
61903;SDS011;47857;52.270;6.804;2022-07-21T01:56:34;22.52;;;18.02;;
61903;SDS011;47857;52.270;6.804;2022-07-21T01:59:00;24.98;;;18.77;;
61903;SDS011;47857;52.270;6.804;2022-07-21T02:01:27;21.20;;;18.55;;
61903;SDS011;47857;52.270;6.804;2022-07-21T02:03:54;19.77;;;16.88;;
61903;SDS011;47857;52.270;6.804;2022-07-21T02:06:20;20.13;;;16.92;;
61903;SDS011;47857;52.270;6.804;2022-07-21T02:08:46;20.83;;;17.75;;
61903;SDS011;47857;52.270;6.804;2022-07-21T02:11:12;20.02;;;17.55;;
61903;SDS011;47857;52.270;6.804;2022-07-21T02:13:38;19.35;;;17.35;;
61903;SDS011;47857;52.270;6.804;2022-07-21T02:16:04;21.23;;;18.55;;
61903;SDS011;47857;52.270;6.804;2022-07-21T02:18:30;20.15;;;17.88;;
61903;SDS011;47857;52.270;6.804;2022-07-21T02:20:55;21.35;;;18.08;;
61903;SDS011;47857;52.270;6.804;2022-07-21T02:23:22;23.55;;;19.15;;
61903;SDS011;47857;52.270;6.804;2022-07-21T02:25:48;20.48;;;17.85;;
61903;SDS011;47857;52.270;6.804;2022-07-21T02:28:14;21.25;;;17.92;;
61903;SDS011;47857;52.270;6.804;2022-07-21T02:30:39;20.15;;;17.00;;
61903;SDS011;47857;52.270;6.804;2022-07-21T02:33:05;21.38;;;18.38;;
61903;SDS011;47857;52.270;6.804;2022-07-21T02:35:31;23.15;;;18.52;;
61903;SDS011;47857;52.270;6.804;2022-07-21T02:37:57;20.65;;;17.27;;
61903;SDS011;47857;52.270;6.804;2022-07-21T02:40:23;20.17;;;18.08;;
61903;SDS011;47857;52.270;6.804;2022-07-21T02:42:48;19.85;;;17.75;;
61903;SDS011;47857;52.270;6.804;2022-07-21T02:45:14;22.88;;;19.27;;
61903;SDS011;47857;52.270;6.804;2022-07-21T02:50:22;22.33;;;19.10;;
61903;SDS011;47857;52.270;6.804;2022-07-21T02:52:48;21.20;;;18.35;;
61903;SDS011;47857;52.270;6.804;2022-07-21T02:55:15;22.92;;;19.65;;
61903;SDS011;47857;52.270;6.804;2022-07-21T02:57:40;21.65;;;18.83;;
61903;SDS011;47857;52.270;6.804;2022-07-21T03:00:07;21.40;;;18.02;;
61903;SDS011;47857;52.270;6.804;2022-07-21T03:02:34;22.20;;;18.38;;
61903;SDS011;47857;52.270;6.804;2022-07-21T03:04:59;18.50;;;16.45;;
61903;SDS011;47857;52.270;6.804;2022-07-21T03:07:25;18.05;;;15.50;;
61903;SDS011;47857;52.270;6.804;2022-07-21T03:09:50;13.93;;;11.70;;
61903;SDS011;47857;52.270;6.804;2022-07-21T03:12:16;13.35;;;11.27;;
61903;SDS011;47857;52.270;6.804;2022-07-21T03:14:41;13.85;;;11.13;;
61903;SDS011;47857;52.270;6.804;2022-07-21T03:17:07;13.80;;;11.85;;
61903;SDS011;47857;52.270;6.804;2022-07-21T03:19:32;14.32;;;12.45;;
61903;SDS011;47857;52.270;6.804;2022-07-21T03:21:58;13.68;;;12.13;;
61903;SDS011;47857;52.270;6.804;2022-07-21T03:24:24;13.38;;;11.40;;
61903;SDS011;47857;52.270;6.804;2022-07-21T03:26:49;11.73;;;10.50;;
61903;SDS011;47857;52.270;6.804;2022-07-21T03:29:15;11.52;;;10.00;;
61903;SDS011;47857;52.270;6.804;2022-07-21T03:31:41;11.25;;;9.73;;
61903;SDS011;47857;52.270;6.804;2022-07-21T03:34:06;10.85;;;8.77;;
61903;SDS011;47857;52.270;6.804;2022-07-21T03:36:32;11.48;;;9.38;;
61903;SDS011;47857;52.270;6.804;2022-07-21T03:38:57;13.77;;;9.10;;
61903;SDS011;47857;52.270;6.804;2022-07-21T03:41:23;12.43;;;8.75;;
61903;SDS011;47857;52.270;6.804;2022-07-21T03:43:48;10.57;;;9.13;;
61903;SDS011;47857;52.270;6.804;2022-07-21T03:46:13;10.38;;;9.32;;
61903;SDS011;47857;52.270;6.804;2022-07-21T03:48:39;12.48;;;9.32;;
61903;SDS011;47857;52.270;6.804;2022-07-21T03:51:05;11.10;;;9.68;;
61903;SDS011;47857;52.270;6.804;2022-07-21T03:53:30;13.40;;;10.75;;
61903;SDS011;47857;52.270;6.804;2022-07-21T03:55:56;12.50;;;10.70;;
61903;SDS011;47857;52.270;6.804;2022-07-21T03:58:21;13.18;;;10.55;;
61903;SDS011;47857;52.270;6.804;2022-07-21T04:00:47;12.95;;;11.52;;
61903;SDS011;47857;52.270;6.804;2022-07-21T04:03:13;13.55;;;11.30;;
61903;SDS011;47857;52.270;6.804;2022-07-21T04:05:39;14.05;;;12.15;;
61903;SDS011;47857;52.270;6.804;2022-07-21T04:08:06;14.52;;;12.15;;
61903;SDS011;47857;52.270;6.804;2022-07-21T04:10:34;18.20;;;13.07;;
61903;SDS011;47857;52.270;6.804;2022-07-21T04:13:01;18.02;;;13.57;;
61903;SDS011;47857;52.270;6.804;2022-07-21T04:15:29;17.15;;;14.23;;
61903;SDS011;47857;52.270;6.804;2022-07-21T04:17:55;19.23;;;14.90;;
61903;SDS011;47857;52.270;6.804;2022-07-21T04:20:20;17.40;;;15.50;;
61903;SDS011;47857;52.270;6.804;2022-07-21T04:22:47;17.98;;;15.07;;
61903;SDS011;47857;52.270;6.804;2022-07-21T04:25:13;19.25;;;16.10;;
61903;SDS011;47857;52.270;6.804;2022-07-21T04:27:39;17.98;;;15.35;;
61903;SDS011;47857;52.270;6.804;2022-07-21T04:30:05;20.08;;;16.52;;
61903;SDS011;47857;52.270;6.804;2022-07-21T04:32:32;21.58;;;17.55;;
61903;SDS011;47857;52.270;6.804;2022-07-21T04:34:57;22.38;;;17.45;;
61903;SDS011;47857;52.270;6.804;2022-07-21T04:37:23;26.02;;;21.50;;
61903;SDS011;47857;52.270;6.804;2022-07-21T04:39:48;31.13;;;22.70;;
61903;SDS011;47857;52.270;6.804;2022-07-21T04:42:14;27.10;;;21.20;;
61903;SDS011;47857;52.270;6.804;2022-07-21T04:44:40;27.05;;;21.38;;
61903;SDS011;47857;52.270;6.804;2022-07-21T04:47:05;30.23;;;21.70;;
61903;SDS011;47857;52.270;6.804;2022-07-21T04:49:31;26.60;;;21.75;;
61903;SDS011;47857;52.270;6.804;2022-07-21T04:51:57;25.85;;;21.08;;
61903;SDS011;47857;52.270;6.804;2022-07-21T04:54:23;18.98;;;16.92;;
61903;SDS011;47857;52.270;6.804;2022-07-21T04:56:48;21.60;;;19.30;;
61903;SDS011;47857;52.270;6.804;2022-07-21T04:59:13;22.00;;;19.23;;
61903;SDS011;47857;52.270;6.804;2022-07-21T05:01:39;24.58;;;20.40;;
61903;SDS011;47857;52.270;6.804;2022-07-21T05:04:05;23.42;;;20.55;;
61903;SDS011;47857;52.270;6.804;2022-07-21T05:06:31;24.50;;;20.67;;
61903;SDS011;47857;52.270;6.804;2022-07-21T05:08:57;23.13;;;20.63;;
61903;SDS011;47857;52.270;6.804;2022-07-21T05:11:22;24.00;;;21.27;;
61903;SDS011;47857;52.270;6.804;2022-07-21T05:13:48;23.88;;;20.70;;
61903;SDS011;47857;52.270;6.804;2022-07-21T05:16:14;23.08;;;20.45;;
61903;SDS011;47857;52.270;6.804;2022-07-21T05:18:39;23.23;;;19.10;;
61903;SDS011;47857;52.270;6.804;2022-07-21T05:21:05;23.65;;;20.05;;
61903;SDS011;47857;52.270;6.804;2022-07-21T05:23:30;27.85;;;21.02;;
61903;SDS011;47857;52.270;6.804;2022-07-21T05:25:56;25.60;;;20.50;;
61903;SDS011;47857;52.270;6.804;2022-07-21T05:28:21;22.92;;;19.13;;
61903;SDS011;47857;52.270;6.804;2022-07-21T05:30:47;23.10;;;20.15;;
61903;SDS011;47857;52.270;6.804;2022-07-21T05:33:12;26.83;;;18.88;;
61903;SDS011;47857;52.270;6.804;2022-07-21T05:35:38;26.08;;;21.30;;
61903;SDS011;47857;52.270;6.804;2022-07-21T05:38:03;23.17;;;20.65;;
61903;SDS011;47857;52.270;6.804;2022-07-21T05:40:29;25.20;;;21.63;;
61903;SDS011;47857;52.270;6.804;2022-07-21T05:42:54;24.15;;;21.23;;
61903;SDS011;47857;52.270;6.804;2022-07-21T05:45:19;25.92;;;22.17;;
61903;SDS011;47857;52.270;6.804;2022-07-21T05:47:45;27.65;;;21.92;;
61903;SDS011;47857;52.270;6.804;2022-07-21T05:50:11;40.22;;;22.70;;
61903;SDS011;47857;52.270;6.804;2022-07-21T05:52:38;32.13;;;23.20;;
61903;SDS011;47857;52.270;6.804;2022-07-21T05:55:03;28.42;;;22.02;;
61903;SDS011;47857;52.270;6.804;2022-07-21T05:57:29;27.00;;;20.40;;
61903;SDS011;47857;52.270;6.804;2022-07-21T05:59:55;28.02;;;21.30;;
61903;SDS011;47857;52.270;6.804;2022-07-21T06:02:20;25.05;;;19.52;;
61903;SDS011;47857;52.270;6.804;2022-07-21T06:04:46;29.88;;;22.42;;
61903;SDS011;47857;52.270;6.804;2022-07-21T06:07:11;29.67;;;22.33;;
61903;SDS011;47857;52.270;6.804;2022-07-21T06:09:37;31.33;;;20.67;;
61903;SDS011;47857;52.270;6.804;2022-07-21T06:12:03;27.20;;;20.38;;
61903;SDS011;47857;52.270;6.804;2022-07-21T06:14:29;26.40;;;22.08;;
61903;SDS011;47857;52.270;6.804;2022-07-21T06:16:54;27.30;;;20.35;;
61903;SDS011;47857;52.270;6.804;2022-07-21T06:19:20;27.38;;;22.15;;
61903;SDS011;47857;52.270;6.804;2022-07-21T06:21:45;26.58;;;20.42;;
61903;SDS011;47857;52.270;6.804;2022-07-21T06:24:11;26.48;;;20.52;;
61903;SDS011;47857;52.270;6.804;2022-07-21T06:26:36;24.15;;;20.75;;
61903;SDS011;47857;52.270;6.804;2022-07-21T06:29:03;23.98;;;21.45;;
61903;SDS011;47857;52.270;6.804;2022-07-21T06:31:29;23.80;;;19.27;;
61903;SDS011;47857;52.270;6.804;2022-07-21T06:33:55;24.58;;;20.45;;
61903;SDS011;47857;52.270;6.804;2022-07-21T06:36:20;23.30;;;20.80;;
61903;SDS011;47857;52.270;6.804;2022-07-21T06:38:45;24.17;;;20.08;;
61903;SDS011;47857;52.270;6.804;2022-07-21T06:41:11;22.70;;;19.58;;
61903;SDS011;47857;52.270;6.804;2022-07-21T06:43:37;22.08;;;19.73;;
61903;SDS011;47857;52.270;6.804;2022-07-21T06:46:03;22.55;;;18.95;;
61903;SDS011;47857;52.270;6.804;2022-07-21T06:48:28;21.02;;;18.67;;
61903;SDS011;47857;52.270;6.804;2022-07-21T06:50:54;21.75;;;18.77;;
61903;SDS011;47857;52.270;6.804;2022-07-21T06:53:20;21.17;;;18.98;;
61903;SDS011;47857;52.270;6.804;2022-07-21T06:55:46;20.83;;;18.58;;
61903;SDS011;47857;52.270;6.804;2022-07-21T06:58:12;19.95;;;17.85;;
61903;SDS011;47857;52.270;6.804;2022-07-21T07:00:39;20.67;;;18.48;;
61903;SDS011;47857;52.270;6.804;2022-07-21T07:03:05;21.63;;;18.58;;
61903;SDS011;47857;52.270;6.804;2022-07-21T07:05:30;21.45;;;17.83;;
61903;SDS011;47857;52.270;6.804;2022-07-21T07:07:56;22.75;;;19.05;;
61903;SDS011;47857;52.270;6.804;2022-07-21T07:10:22;22.25;;;17.77;;
61903;SDS011;47857;52.270;6.804;2022-07-21T07:12:47;23.20;;;17.77;;
61903;SDS011;47857;52.270;6.804;2022-07-21T07:15:13;23.00;;;18.30;;
61903;SDS011;47857;52.270;6.804;2022-07-21T07:17:38;21.70;;;19.20;;
61903;SDS011;47857;52.270;6.804;2022-07-21T07:20:04;22.75;;;19.23;;
61903;SDS011;47857;52.270;6.804;2022-07-21T07:22:31;23.15;;;19.45;;
61903;SDS011;47857;52.270;6.804;2022-07-21T07:24:57;22.50;;;17.80;;
61903;SDS011;47857;52.270;6.804;2022-07-21T07:27:23;21.95;;;19.63;;
61903;SDS011;47857;52.270;6.804;2022-07-21T07:29:48;23.15;;;17.83;;
61903;SDS011;47857;52.270;6.804;2022-07-21T07:32:14;20.38;;;18.17;;
61903;SDS011;47857;52.270;6.804;2022-07-21T07:34:39;22.25;;;19.35;;
61903;SDS011;47857;52.270;6.804;2022-07-21T07:37:04;23.17;;;18.13;;
61903;SDS011;47857;52.270;6.804;2022-07-21T07:39:30;22.70;;;19.25;;
61903;SDS011;47857;52.270;6.804;2022-07-21T07:41:55;21.67;;;19.08;;
61903;SDS011;47857;52.270;6.804;2022-07-21T07:44:21;22.25;;;19.35;;
61903;SDS011;47857;52.270;6.804;2022-07-21T07:46:47;22.67;;;19.80;;
61903;SDS011;47857;52.270;6.804;2022-07-21T07:49:13;20.83;;;18.35;;
61903;SDS011;47857;52.270;6.804;2022-07-21T07:51:39;22.52;;;19.60;;
61903;SDS011;47857;52.270;6.804;2022-07-21T07:54:04;23.58;;;19.85;;
61903;SDS011;47857;52.270;6.804;2022-07-21T07:56:30;23.75;;;20.50;;
61903;SDS011;47857;52.270;6.804;2022-07-21T07:58:56;27.85;;;21.42;;
61903;SDS011;47857;52.270;6.804;2022-07-21T08:01:21;27.05;;;22.10;;
61903;SDS011;47857;52.270;6.804;2022-07-21T08:03:48;26.05;;;22.27;;
61903;SDS011;47857;52.270;6.804;2022-07-21T08:06:13;23.10;;;19.92;;
61903;SDS011;47857;52.270;6.804;2022-07-21T08:08:39;23.90;;;20.30;;
61903;SDS011;47857;52.270;6.804;2022-07-21T08:11:05;26.45;;;22.52;;
61903;SDS011;47857;52.270;6.804;2022-07-21T08:13:30;27.38;;;21.52;;
61903;SDS011;47857;52.270;6.804;2022-07-21T08:15:56;25.40;;;21.52;;
61903;SDS011;47857;52.270;6.804;2022-07-21T08:18:22;28.63;;;23.55;;
61903;SDS011;47857;52.270;6.804;2022-07-21T08:20:47;28.45;;;23.13;;
61903;SDS011;47857;52.270;6.804;2022-07-21T08:23:13;29.88;;;24.17;;
61903;SDS011;47857;52.270;6.804;2022-07-21T08:25:39;31.95;;;24.85;;
61903;SDS011;47857;52.270;6.804;2022-07-21T08:28:05;31.58;;;24.73;;
61903;SDS011;47857;52.270;6.804;2022-07-21T08:30:31;31.20;;;25.77;;
61903;SDS011;47857;52.270;6.804;2022-07-21T08:32:57;32.53;;;25.60;;
61903;SDS011;47857;52.270;6.804;2022-07-21T08:35:23;32.10;;;26.15;;
61903;SDS011;47857;52.270;6.804;2022-07-21T08:37:56;33.15;;;25.38;;
61903;SDS011;47857;52.270;6.804;2022-07-21T08:40:26;34.85;;;27.23;;
61903;SDS011;47857;52.270;6.804;2022-07-21T08:42:54;37.08;;;27.02;;
61903;SDS011;47857;52.270;6.804;2022-07-21T08:45:20;30.58;;;25.95;;
61903;SDS011;47857;52.270;6.804;2022-07-21T08:47:49;35.28;;;27.60;;
61903;SDS011;47857;52.270;6.804;2022-07-21T08:50:17;38.10;;;28.75;;
61903;SDS011;47857;52.270;6.804;2022-07-21T08:52:42;36.13;;;27.73;;
61903;SDS011;47857;52.270;6.804;2022-07-21T08:55:08;35.38;;;26.67;;
61903;SDS011;47857;52.270;6.804;2022-07-21T08:57:33;34.85;;;27.95;;
61903;SDS011;47857;52.270;6.804;2022-07-21T08:59:59;36.90;;;28.25;;
61903;SDS011;47857;52.270;6.804;2022-07-21T09:02:25;38.22;;;28.17;;
61903;SDS011;47857;52.270;6.804;2022-07-21T09:04:52;34.58;;;28.55;;
61903;SDS011;47857;52.270;6.804;2022-07-21T09:07:18;36.40;;;29.58;;
61903;SDS011;47857;52.270;6.804;2022-07-21T09:09:53;37.25;;;29.10;;
61903;SDS011;47857;52.270;6.804;2022-07-21T09:12:22;37.00;;;30.35;;
61903;SDS011;47857;52.270;6.804;2022-07-21T09:14:49;35.08;;;28.60;;
61903;SDS011;47857;52.270;6.804;2022-07-21T09:17:15;36.55;;;30.40;;
61903;SDS011;47857;52.270;6.804;2022-07-21T09:19:43;40.63;;;30.10;;
61903;SDS011;47857;52.270;6.804;2022-07-21T09:22:19;37.38;;;29.25;;
61903;SDS011;47857;52.270;6.804;2022-07-21T09:24:48;39.47;;;29.80;;
61903;SDS011;47857;52.270;6.804;2022-07-21T09:27:18;35.65;;;28.80;;
61903;SDS011;47857;52.270;6.804;2022-07-21T09:29:47;35.80;;;29.40;;
61903;SDS011;47857;52.270;6.804;2022-07-21T09:32:19;30.17;;;26.33;;
61903;SDS011;47857;52.270;6.804;2022-07-21T09:35:05;31.90;;;27.27;;
61903;SDS011;47857;52.270;6.804;2022-07-21T09:37:34;32.88;;;27.85;;
61903;SDS011;47857;52.270;6.804;2022-07-21T09:40:03;31.38;;;27.98;;
61903;SDS011;47857;52.270;6.804;2022-07-21T09:42:33;33.00;;;26.42;;
61903;SDS011;47857;52.270;6.804;2022-07-21T09:45:02;27.88;;;24.92;;
61903;SDS011;47857;52.270;6.804;2022-07-21T09:47:30;27.95;;;24.95;;
61903;SDS011;47857;52.270;6.804;2022-07-21T09:49:57;28.00;;;23.73;;
61903;SDS011;47857;52.270;6.804;2022-07-21T09:54:51;25.35;;;22.60;;
61903;SDS011;47857;52.270;6.804;2022-07-21T09:57:18;22.52;;;20.13;;
61903;SDS011;47857;52.270;6.804;2022-07-21T09:59:45;23.75;;;20.38;;
61903;SDS011;47857;52.270;6.804;2022-07-21T10:02:14;23.85;;;19.55;;
61903;SDS011;47857;52.270;6.804;2022-07-21T10:04:41;19.13;;;16.05;;
61903;SDS011;47857;52.270;6.804;2022-07-21T10:07:08;19.83;;;16.30;;
61903;SDS011;47857;52.270;6.804;2022-07-21T10:09:34;20.73;;;15.52;;
61903;SDS011;47857;52.270;6.804;2022-07-21T10:12:00;15.93;;;13.60;;
61903;SDS011;47857;52.270;6.804;2022-07-21T10:14:26;20.30;;;15.05;;
61903;SDS011;47857;52.270;6.804;2022-07-21T10:16:52;14.82;;;12.60;;
61903;SDS011;47857;52.270;6.804;2022-07-21T10:19:23;16.15;;;11.52;;
61903;SDS011;47857;52.270;6.804;2022-07-21T10:24:40;15.32;;;12.30;;
61903;SDS011;47857;52.270;6.804;2022-07-21T10:27:10;14.50;;;11.82;;
61903;SDS011;47857;52.270;6.804;2022-07-21T10:29:53;15.95;;;11.77;;
61903;SDS011;47857;52.270;6.804;2022-07-21T10:35:03;15.80;;;12.10;;
61903;SDS011;47857;52.270;6.804;2022-07-21T10:37:57;14.43;;;11.85;;
61903;SDS011;47857;52.270;6.804;2022-07-21T10:45:30;19.70;;;12.98;;
61903;SDS011;47857;52.270;6.804;2022-07-21T10:47:56;13.88;;;12.25;;
61903;SDS011;47857;52.270;6.804;2022-07-21T10:50:29;15.70;;;12.30;;
61903;SDS011;47857;52.270;6.804;2022-07-21T10:52:55;14.88;;;11.40;;
61903;SDS011;47857;52.270;6.804;2022-07-21T10:55:22;15.70;;;12.57;;
61903;SDS011;47857;52.270;6.804;2022-07-21T10:58:10;18.77;;;12.77;;
61903;SDS011;47857;52.270;6.804;2022-07-21T11:00:49;18.80;;;13.50;;
61903;SDS011;47857;52.270;6.804;2022-07-21T11:03:20;17.80;;;13.50;;
61903;SDS011;47857;52.270;6.804;2022-07-21T11:08:36;17.58;;;13.93;;
61903;SDS011;47857;52.270;6.804;2022-07-21T11:24:48;16.17;;;11.98;;
61903;SDS011;47857;52.270;6.804;2022-07-21T11:27:15;19.38;;;12.93;;
61903;SDS011;47857;52.270;6.804;2022-07-21T11:29:44;18.50;;;13.23;;
61903;SDS011;47857;52.270;6.804;2022-07-21T11:32:11;16.80;;;12.88;;
61903;SDS011;47857;52.270;6.804;2022-07-21T11:37:12;16.10;;;12.85;;
61903;SDS011;47857;52.270;6.804;2022-07-21T11:39:39;14.60;;;12.00;;
61903;SDS011;47857;52.270;6.804;2022-07-21T11:42:06;17.02;;;11.15;;
61903;SDS011;47857;52.270;6.804;2022-07-21T11:44:34;14.93;;;11.10;;
61903;SDS011;47857;52.270;6.804;2022-07-21T11:47:01;15.27;;;10.45;;
61903;SDS011;47857;52.270;6.804;2022-07-21T11:49:28;15.25;;;12.18;;
61903;SDS011;47857;52.270;6.804;2022-07-21T11:52:06;14.95;;;12.32;;
61903;SDS011;47857;52.270;6.804;2022-07-21T11:54:36;12.98;;;11.07;;
61903;SDS011;47857;52.270;6.804;2022-07-21T11:57:13;17.10;;;12.95;;
61903;SDS011;47857;52.270;6.804;2022-07-21T11:59:40;10.98;;;9.10;;
61903;SDS011;47857;52.270;6.804;2022-07-21T12:02:07;16.45;;;10.95;;
61903;SDS011;47857;52.270;6.804;2022-07-21T12:04:44;12.52;;;10.55;;
61903;SDS011;47857;52.270;6.804;2022-07-21T12:07:11;14.55;;;10.05;;
61903;SDS011;47857;52.270;6.804;2022-07-21T12:09:37;11.25;;;9.50;;
61903;SDS011;47857;52.270;6.804;2022-07-21T12:12:03;12.63;;;9.68;;
61903;SDS011;47857;52.270;6.804;2022-07-21T12:17:36;9.68;;;7.15;;
61903;SDS011;47857;52.270;6.804;2022-07-21T12:20:06;8.40;;;7.00;;
61903;SDS011;47857;52.270;6.804;2022-07-21T12:22:33;10.82;;;7.25;;
61903;SDS011;47857;52.270;6.804;2022-07-21T12:25:04;8.57;;;7.30;;
61903;SDS011;47857;52.270;6.804;2022-07-21T12:27:33;5.85;;;5.35;;
61903;SDS011;47857;52.270;6.804;2022-07-21T12:30:00;5.78;;;5.15;;
61903;SDS011;47857;52.270;6.804;2022-07-21T12:35:24;4.00;;;3.60;;
61903;SDS011;47857;52.270;6.804;2022-07-21T12:37:51;4.10;;;3.70;;
61903;SDS011;47857;52.270;6.804;2022-07-21T12:40:27;4.30;;;3.30;;
61903;SDS011;47857;52.270;6.804;2022-07-21T12:43:07;3.85;;;2.90;;
61903;SDS011;47857;52.270;6.804;2022-07-21T12:45:51;2.78;;;2.15;;
61903;SDS011;47857;52.270;6.804;2022-07-21T12:53:50;4.20;;;2.45;;
61903;SDS011;47857;52.270;6.804;2022-07-21T12:56:19;2.92;;;2.70;;
61903;SDS011;47857;52.270;6.804;2022-07-21T12:58:48;2.50;;;2.30;;
61903;SDS011;47857;52.270;6.804;2022-07-21T13:01:15;3.80;;;2.80;;
61903;SDS011;47857;52.270;6.804;2022-07-21T13:03:42;3.30;;;3.00;;
61903;SDS011;47857;52.270;6.804;2022-07-21T13:06:09;3.38;;;3.08;;
61903;SDS011;47857;52.270;6.804;2022-07-21T13:08:35;4.03;;;2.80;;
61903;SDS011;47857;52.270;6.804;2022-07-21T13:11:02;3.78;;;3.47;;
61903;SDS011;47857;52.270;6.804;2022-07-21T13:13:30;3.95;;;3.65;;
61903;SDS011;47857;52.270;6.804;2022-07-21T13:15:56;3.83;;;3.42;;
61903;SDS011;47857;52.270;6.804;2022-07-21T13:18:22;4.15;;;3.70;;
61903;SDS011;47857;52.270;6.804;2022-07-21T13:20:50;3.47;;;3.17;;
61903;SDS011;47857;52.270;6.804;2022-07-21T13:23:17;5.65;;;4.18;;
61903;SDS011;47857;52.270;6.804;2022-07-21T13:25:42;6.45;;;4.30;;
61903;SDS011;47857;52.270;6.804;2022-07-21T13:28:08;5.00;;;4.47;;
61903;SDS011;47857;52.270;6.804;2022-07-21T13:30:33;5.00;;;4.50;;
61903;SDS011;47857;52.270;6.804;2022-07-21T13:32:59;4.97;;;4.30;;
61903;SDS011;47857;52.270;6.804;2022-07-21T13:35:25;4.70;;;4.20;;
61903;SDS011;47857;52.270;6.804;2022-07-21T13:37:50;5.93;;;5.20;;
61903;SDS011;47857;52.270;6.804;2022-07-21T13:40:16;5.03;;;4.53;;
61903;SDS011;47857;52.270;6.804;2022-07-21T13:42:41;5.85;;;5.07;;
61903;SDS011;47857;52.270;6.804;2022-07-21T13:45:07;4.47;;;4.07;;
61903;SDS011;47857;52.270;6.804;2022-07-21T13:47:36;5.63;;;4.88;;
61903;SDS011;47857;52.270;6.804;2022-07-21T13:50:02;5.47;;;4.72;;
61903;SDS011;47857;52.270;6.804;2022-07-21T13:52:28;5.10;;;4.60;;
61903;SDS011;47857;52.270;6.804;2022-07-21T13:54:53;4.97;;;4.57;;
61903;SDS011;47857;52.270;6.804;2022-07-21T13:57:19;4.57;;;3.28;;
61903;SDS011;47857;52.270;6.804;2022-07-21T13:59:44;4.18;;;3.55;;
61903;SDS011;47857;52.270;6.804;2022-07-21T14:02:10;4.57;;;3.50;;
61903;SDS011;47857;52.270;6.804;2022-07-21T14:04:35;3.17;;;2.90;;
61903;SDS011;47857;52.270;6.804;2022-07-21T14:07:00;3.40;;;3.10;;
61903;SDS011;47857;52.270;6.804;2022-07-21T14:09:26;3.63;;;3.28;;
61903;SDS011;47857;52.270;6.804;2022-07-21T14:11:51;3.17;;;2.83;;
61903;SDS011;47857;52.270;6.804;2022-07-21T14:14:17;5.00;;;4.03;;
61903;SDS011;47857;52.270;6.804;2022-07-21T14:16:47;3.88;;;3.58;;
61903;SDS011;47857;52.270;6.804;2022-07-21T14:19:14;4.43;;;3.80;;
61903;SDS011;47857;52.270;6.804;2022-07-21T14:21:40;5.28;;;4.10;;
61903;SDS011;47857;52.270;6.804;2022-07-21T14:24:05;4.85;;;3.47;;
61903;SDS011;47857;52.270;6.804;2022-07-21T14:26:50;4.03;;;3.63;;
61903;SDS011;47857;52.270;6.804;2022-07-21T14:29:15;4.70;;;4.30;;
61903;SDS011;47857;52.270;6.804;2022-07-21T14:31:41;4.32;;;3.92;;
61903;SDS011;47857;52.270;6.804;2022-07-21T14:34:06;6.18;;;5.30;;
61903;SDS011;47857;52.270;6.804;2022-07-21T14:36:31;5.18;;;4.68;;
61903;SDS011;47857;52.270;6.804;2022-07-21T14:38:57;5.78;;;5.18;;
61903;SDS011;47857;52.270;6.804;2022-07-21T14:41:22;6.85;;;6.00;;
61903;SDS011;47857;52.270;6.804;2022-07-21T14:43:48;6.82;;;6.13;;
61903;SDS011;47857;52.270;6.804;2022-07-21T14:46:16;6.30;;;5.70;;
61903;SDS011;47857;52.270;6.804;2022-07-21T14:48:42;6.47;;;5.75;;
61903;SDS011;47857;52.270;6.804;2022-07-21T14:51:07;8.05;;;6.05;;
61903;SDS011;47857;52.270;6.804;2022-07-21T14:53:33;6.70;;;6.10;;
61903;SDS011;47857;52.270;6.804;2022-07-21T14:55:58;6.75;;;6.10;;
61903;SDS011;47857;52.270;6.804;2022-07-21T14:58:24;5.80;;;5.25;;
61903;SDS011;47857;52.270;6.804;2022-07-21T15:00:49;6.75;;;6.13;;
61903;SDS011;47857;52.270;6.804;2022-07-21T15:03:15;6.57;;;5.97;;
61903;SDS011;47857;52.270;6.804;2022-07-21T15:05:40;8.13;;;6.22;;
61903;SDS011;47857;52.270;6.804;2022-07-21T15:08:06;6.63;;;5.15;;
61903;SDS011;47857;52.270;6.804;2022-07-21T15:10:31;6.38;;;5.78;;
61903;SDS011;47857;52.270;6.804;2022-07-21T15:12:57;6.43;;;5.82;;
61903;SDS011;47857;52.270;6.804;2022-07-21T15:15:22;7.40;;;5.90;;
61903;SDS011;47857;52.270;6.804;2022-07-21T15:17:48;6.28;;;5.68;;
61903;SDS011;47857;52.270;6.804;2022-07-21T15:20:13;6.70;;;6.07;;
61903;SDS011;47857;52.270;6.804;2022-07-21T15:22:39;6.63;;;5.93;;
61903;SDS011;47857;52.270;6.804;2022-07-21T15:25:05;7.22;;;5.60;;
61903;SDS011;47857;52.270;6.804;2022-07-21T15:27:36;6.43;;;5.78;;